Robert Gray Army Air Field Airport
KGRK : now visible

Airfield :











YOU CAN JOIN US ON...

 
LOGIN :

Register | Disclaimer

   EN    FR    IT 

 









Legend :    VFR   Marginal VFR   IFR   Intensive IFR   Very Intensive IFR
Visi :
Ceiling :
>= 8 km
>= 3000ft
5 to 8 km
1000 to 3000 ft
1500m to 5 km
500 to 1000 ft
800 to 1500m
200 to 500 ft
< 800m
< 200 ft
Symbols :   Thunderstorms  Fog  Heavy snow  Heavy precipitations  Wind > 20 kt






- Airport Elevation : 1015 ft
- IATA code : GRK


KGRK - Robert Gray Army Air Field

CURRENT METAR :
  • 212255Z AUTO 04011KT 10SM CLR 19/09 A3024 RMK AO2 SLP237 T01900086

EXPIRED METARs :
  • 212230Z AUTO 03013G21KT 10SM SCT048 19/09 A3025 RMK AO2 SLP241
  • 212210Z AUTO 04012G17KT 10SM SCT047 19/08 A3025 RMK AO2 SLP241
  • 212155Z AUTO 04011KT 10SM BKN048 19/09 A3025 RMK AO2 SLP241 T01930089
  • 212120Z AUTO 05013KT 10SM BKN047 21/10 A3025 RMK AO2 LTG DSNT S SLP241
  • 212105Z AUTO 04009G18KT 10SM SCT046 20/10 A3026 RMK AO2 SLP244
  • 212055Z AUTO 03012G18KT 10SM BKN047 20/09 A3026 RMK AO2 SLP244 T01950094 57017
  • 212027Z AUTO 05014G19KT 10SM SCT049 20/09 A3027 RMK AO2 WSHFT 20 SLP248
  • 212019Z AUTO 01012G19KT 10SM SCT049 20/09 A3027 RMK AO2 WSHFT 16 SLP248
  • 212011Z AUTO 04011KT 10SM BKN049 19/09 A3027 RMK AO2 SLP248
  • 211956Z AUTO 05014G22KT 10SM BKN049 20/09 A3028 RMK AO2 WSHFT 53 SLP251
  • 211855Z AUTO 04013G18KT 10SM FEW044 19/09 A3029 RMK AO2 SLP255 T01850090

TAF TAF KGRK
Valid from the 21 at 16:00 until the 22 at 22:00 UTC


211600Z 2116/2222 36010G18KT 9999 BKN055 QNH3031INS
BECMG 2119/2120 04010G18KT 9999 FEW055 QNH3026INS
BECMG 2201/2202 VRB06KT 9999 SKC QNH3013INS TX18/2121Z TN09/2211Z
KZHU FIR / North America



MET'MAP, your aeronautical weather chart ! - Copyright ORBIFLY December 2007 - Disclaimer

ORBIFLY MET'MAP TEAM :

Programming & Development : Alexandra Zaïnal
Original concept : Baudouin d'Aumeries
Technical & hardware support : Manuel Goepfert
Assistance : Marc-Olivier Méhu




SOURCES & CREDITS :

   NOAA       Earth
Advisory